createdAt,value
2023-02-06T00:01:24.308Z,82.90
2023-02-06T00:03:51.141Z,82.90
2023-02-06T00:06:18.225Z,82.90
2023-02-06T00:08:46.593Z,82.90
2023-02-06T00:11:16.750Z,82.90
2023-02-06T00:13:45.026Z,83.00
2023-02-06T00:16:19.179Z,83.10
2023-02-06T00:18:46.819Z,83.10
2023-02-06T00:21:14.285Z,83.10
2023-02-06T00:23:41.174Z,83.10
2023-02-06T00:26:17.879Z,83.20
2023-02-06T00:28:45.025Z,83.30
2023-02-06T00:31:12.354Z,83.30
2023-02-06T00:33:39.810Z,83.20
2023-02-06T00:36:07.927Z,83.20
2023-02-06T00:38:36.134Z,83.20
2023-02-06T00:41:03.113Z,83.20
2023-02-06T00:43:31.633Z,83.10
2023-02-06T00:45:58.989Z,83.10
2023-02-06T00:48:26.170Z,83.10
2023-02-06T00:50:54.080Z,83.10
2023-02-06T00:53:21.491Z,83.10
2023-02-06T00:55:48.483Z,83.10
2023-02-06T00:58:17.798Z,83.10
2023-02-06T01:00:46.911Z,83.10
2023-02-06T01:03:13.806Z,83.20
2023-02-06T01:05:41.358Z,83.20
2023-02-06T01:08:08.191Z,83.20
2023-02-06T01:10:35.606Z,83.10
2023-02-06T01:13:02.555Z,83.20
2023-02-06T01:15:29.748Z,83.20
2023-02-06T01:17:59.943Z,83.20
2023-02-06T01:20:26.975Z,83.10
2023-02-06T01:22:54.152Z,83.20
2023-02-06T01:25:21.042Z,83.20
2023-02-06T01:27:48.257Z,83.20
2023-02-06T01:30:16.206Z,83.20
2023-02-06T01:32:43.250Z,83.20
2023-02-06T01:35:12.765Z,83.20
2023-02-06T01:37:40.479Z,83.20
2023-02-06T01:40:11.764Z,83.20
2023-02-06T01:42:46.492Z,83.20
2023-02-06T01:45:43.977Z,83.20
2023-02-06T01:48:15.160Z,83.20
2023-02-06T01:54:22.662Z,83.20
2023-02-06T01:56:59.021Z,83.30
2023-02-06T01:59:26.947Z,83.30
2023-02-06T02:01:53.830Z,83.30
2023-02-06T02:04:22.784Z,83.30
2023-02-06T02:07:35.742Z,83.30
2023-02-06T02:10:03.814Z,83.30
2023-02-06T02:12:31.154Z,83.30
2023-02-06T02:14:59.061Z,83.30
2023-02-06T02:17:38.965Z,83.30
2023-02-06T02:20:38.681Z,83.30
2023-02-06T02:23:17.424Z,83.30
2023-02-06T02:26:17.174Z,83.30
2023-02-06T02:29:10.708Z,83.30
2023-02-06T02:32:07.754Z,83.20
2023-02-06T02:35:02.958Z,83.20
2023-02-06T02:37:34.908Z,83.20
2023-02-06T02:40:11.240Z,83.20
2023-02-06T02:42:43.347Z,83.20
2023-02-06T02:45:18.818Z,83.20
2023-02-06T02:47:50.730Z,83.20
2023-02-06T02:50:19.653Z,83.10
2023-02-06T02:52:46.506Z,83.10
2023-02-06T02:55:23.484Z,83.10
2023-02-06T02:57:55.236Z,83.10
2023-02-06T03:00:24.621Z,83.20
2023-02-06T03:02:55.951Z,83.20
2023-02-06T03:05:28.653Z,83.20
2023-02-06T03:08:08.647Z,83.20
2023-02-06T03:10:45.900Z,83.20
2023-02-06T03:13:21.529Z,83.20
2023-02-06T03:16:01.920Z,83.20
2023-02-06T03:18:34.742Z,83.20
2023-02-06T03:21:06.629Z,83.20
2023-02-06T03:23:38.675Z,83.20
2023-02-06T03:26:09.338Z,83.20
2023-02-06T03:28:40.386Z,83.20
2023-02-06T03:31:11.468Z,83.20
2023-02-06T03:33:43.482Z,83.20
2023-02-06T03:36:17.269Z,83.20
2023-02-06T03:38:44.841Z,83.30
2023-02-06T03:41:13.823Z,83.20
2023-02-06T03:43:43.370Z,83.20
2023-02-06T03:46:12.792Z,83.20
2023-02-06T03:48:42.689Z,83.20
2023-02-06T03:51:15.967Z,83.30
2023-02-06T03:53:45.596Z,83.30
2023-02-06T03:56:19.771Z,83.30
2023-02-06T03:59:24.258Z,83.30
2023-02-06T04:02:02.603Z,83.30
2023-02-06T04:04:34.179Z,83.30
2023-02-06T04:07:08.665Z,83.30
2023-02-06T04:09:36.719Z,83.40
2023-02-06T04:12:03.833Z,83.40
2023-02-06T04:14:30.955Z,83.40
2023-02-06T04:16:57.926Z,83.40
2023-02-06T04:19:27.830Z,83.40
2023-02-06T04:21:54.914Z,83.40
2023-02-06T04:24:23.152Z,83.40
2023-02-06T04:26:50.706Z,83.40
2023-02-06T04:29:17.786Z,83.40
2023-02-06T04:31:45.203Z,83.40
2023-02-06T04:34:12.285Z,83.50
2023-02-06T04:36:39.455Z,83.50
2023-02-06T04:39:07.435Z,83.50
2023-02-06T04:41:35.959Z,83.50
2023-02-06T04:44:03.421Z,83.50
2023-02-06T04:46:30.414Z,83.60
2023-02-06T04:48:57.651Z,83.50
2023-02-06T04:51:24.709Z,83.60
2023-02-06T04:53:51.699Z,83.60
2023-02-06T04:56:18.618Z,83.60
2023-02-06T04:58:47.426Z,83.60
2023-02-06T05:01:16.744Z,83.60
2023-02-06T05:03:44.054Z,83.60
2023-02-06T05:06:11.668Z,83.60
2023-02-06T05:08:38.799Z,83.70
2023-02-06T05:11:06.280Z,83.70
2023-02-06T05:13:34.262Z,83.80
2023-02-06T05:16:06.629Z,83.80
2023-02-06T05:18:33.563Z,83.80
2023-02-06T05:21:00.535Z,83.90
2023-02-06T05:23:27.528Z,83.90
2023-02-06T05:25:54.666Z,83.90
2023-02-06T05:28:21.725Z,83.90
2023-02-06T05:30:48.664Z,83.80
2023-02-06T05:33:18.858Z,83.90
2023-02-06T05:35:46.028Z,83.90
2023-02-06T05:38:13.038Z,83.90
2023-02-06T05:40:40.141Z,83.90
2023-02-06T05:43:07.036Z,83.90
2023-02-06T05:45:36.049Z,83.90
2023-02-06T05:48:03.169Z,83.90
2023-02-06T05:50:31.758Z,83.90
2023-02-06T05:52:58.708Z,83.90
2023-02-06T05:55:25.613Z,83.90
2023-02-06T05:57:52.889Z,83.90
2023-02-06T06:00:20.120Z,84.00
2023-02-06T06:02:47.178Z,84.00
2023-02-06T06:05:14.211Z,84.10
2023-02-06T06:07:42.791Z,84.10
2023-02-06T06:10:10.088Z,84.10
2023-02-06T06:12:37.844Z,84.10
2023-02-06T06:15:05.690Z,84.20
2023-02-06T06:17:32.683Z,84.20
2023-02-06T06:20:01.417Z,84.30
2023-02-06T06:22:28.421Z,84.30
2023-02-06T06:24:56.973Z,84.30
2023-02-06T06:27:26.306Z,84.30
2023-02-06T06:29:53.185Z,84.30
2023-02-06T06:32:20.929Z,84.30
2023-02-06T06:34:51.288Z,84.40
2023-02-06T06:37:18.104Z,84.40
2023-02-06T06:39:45.072Z,84.40
2023-02-06T06:42:14.316Z,84.40
2023-02-06T06:44:41.285Z,84.50
2023-02-06T06:47:08.696Z,84.50
2023-02-06T06:49:35.593Z,84.50
2023-02-06T06:52:13.403Z,84.50
2023-02-06T06:54:46.651Z,84.50
2023-02-06T06:57:16.284Z,84.50
2023-02-06T06:59:43.997Z,84.50
2023-02-06T07:02:13.762Z,84.50
2023-02-06T07:04:40.733Z,84.60
2023-02-06T07:07:08.239Z,84.60
2023-02-06T07:09:35.221Z,84.60
2023-02-06T07:12:02.275Z,84.60
2023-02-06T07:14:30.651Z,84.60
2023-02-06T07:16:59.235Z,84.70
2023-02-06T07:19:26.511Z,84.70
2023-02-06T07:21:53.422Z,84.70
2023-02-06T07:24:20.859Z,84.60
2023-02-06T07:26:47.858Z,84.60
2023-02-06T07:29:15.135Z,84.70
2023-02-06T07:31:43.645Z,84.70
2023-02-06T07:34:10.908Z,84.70
2023-02-06T07:36:38.065Z,84.70
2023-02-06T07:39:05.515Z,84.70
2023-02-06T07:41:32.455Z,84.70
2023-02-06T07:43:59.631Z,84.80
2023-02-06T07:46:26.962Z,84.80
2023-02-06T07:48:55.487Z,84.80
2023-02-06T07:51:23.151Z,84.80
2023-02-06T07:53:50.279Z,84.90
2023-02-06T07:56:19.035Z,84.90
2023-02-06T07:58:50.203Z,84.90
2023-02-06T08:01:17.555Z,85.00
2023-02-06T08:03:44.486Z,85.00
2023-02-06T08:06:14.872Z,85.00
2023-02-06T08:08:42.778Z,85.00
2023-02-06T08:11:17.227Z,85.10
2023-02-06T08:13:44.666Z,85.10
2023-02-06T08:16:13.664Z,85.10
2023-02-06T08:18:41.962Z,85.20
2023-02-06T08:21:17.406Z,85.20
2023-02-06T08:23:44.414Z,85.20
2023-02-06T08:26:13.461Z,85.30
2023-02-06T08:28:42.227Z,85.30
2023-02-06T08:31:11.377Z,85.30
2023-02-06T08:33:38.467Z,85.40
2023-02-06T08:36:07.112Z,85.40
2023-02-06T08:38:36.068Z,85.40
2023-02-06T08:41:02.979Z,85.40
2023-02-06T08:43:31.567Z,85.40
2023-02-06T08:45:59.838Z,85.50
2023-02-06T08:48:27.115Z,85.40
2023-02-06T08:51:02.670Z,85.40
2023-02-06T08:53:29.811Z,85.50
2023-02-06T08:56:00.231Z,85.30
2023-02-06T08:58:27.683Z,85.60
2023-02-06T09:00:55.338Z,85.60
2023-02-06T09:03:23.057Z,85.60
2023-02-06T09:05:51.572Z,85.80
2023-02-06T09:08:19.676Z,86.20
2023-02-06T09:10:46.522Z,86.40
2023-02-06T09:13:15.403Z,86.50
2023-02-06T09:15:43.226Z,86.70
2023-02-06T09:18:10.173Z,86.80
2023-02-06T09:20:37.249Z,86.50
2023-02-06T09:23:04.256Z,86.10
2023-02-06T09:25:31.114Z,85.80
2023-02-06T09:27:58.503Z,85.60
2023-02-06T09:30:28.051Z,85.70
2023-02-06T09:32:54.943Z,85.80
2023-02-06T09:35:25.512Z,85.80
2023-02-06T09:37:52.668Z,85.60
2023-02-06T09:40:27.099Z,85.30
2023-02-06T09:42:54.857Z,85.00
2023-02-06T09:45:24.438Z,84.90
2023-02-06T09:47:55.736Z,84.90
2023-02-06T09:50:31.305Z,85.10
2023-02-06T09:53:08.630Z,85.20
2023-02-06T09:55:40.860Z,85.10
2023-02-06T09:58:19.096Z,84.80
2023-02-06T10:00:52.094Z,84.80
2023-02-06T10:03:49.596Z,84.70
2023-02-06T10:06:20.497Z,84.40
2023-02-06T10:08:55.971Z,84.40
2023-02-06T10:11:38.918Z,84.30
2023-02-06T10:14:18.295Z,84.20
2023-02-06T10:16:51.371Z,84.00
2023-02-06T10:19:26.433Z,84.00
2023-02-06T10:22:02.003Z,84.20
2023-02-06T10:24:36.758Z,84.90
2023-02-06T10:27:10.180Z,84.60
2023-02-06T10:29:37.327Z,83.60
2023-02-06T10:32:31.243Z,83.30
2023-02-06T10:35:20.360Z,80.90
2023-02-06T10:38:19.553Z,80.00
2023-02-06T10:40:53.030Z,79.10
2023-02-06T10:43:32.035Z,78.50
2023-02-06T10:46:11.020Z,78.70
2023-02-06T10:48:42.215Z,80.60
2023-02-06T10:51:17.626Z,81.50
2023-02-06T10:53:51.087Z,80.00
2023-02-06T10:56:24.960Z,78.80
2023-02-06T10:58:59.758Z,76.40
2023-02-06T11:01:32.176Z,75.80
2023-02-06T11:04:05.531Z,74.30
2023-02-06T11:06:34.440Z,72.40
2023-02-06T11:09:03.777Z,73.80
2023-02-06T11:11:36.111Z,70.70
2023-02-06T11:14:09.848Z,70.50
2023-02-06T11:16:37.673Z,70.20
2023-02-06T11:19:15.780Z,69.80
2023-02-06T11:21:54.783Z,71.70
2023-02-06T11:24:23.946Z,68.00
2023-02-06T11:26:54.893Z,69.80
2023-02-06T11:29:25.169Z,71.30
2023-02-06T11:31:57.037Z,70.50
2023-02-06T11:34:27.720Z,70.70
2023-02-06T11:37:03.469Z,70.70
2023-02-06T11:39:34.076Z,71.40
2023-02-06T11:42:03.712Z,71.20
2023-02-06T11:44:37.448Z,72.10
2023-02-06T11:47:32.968Z,73.20
2023-02-06T11:50:22.407Z,73.90
2023-02-06T11:52:56.121Z,72.00
2023-02-06T11:55:25.324Z,71.70
2023-02-06T11:58:04.734Z,70.90
2023-02-06T12:00:31.859Z,72.50
2023-02-06T12:02:59.126Z,69.30
2023-02-06T12:05:30.860Z,69.90
2023-02-06T12:08:05.516Z,67.80
2023-02-06T12:10:40.875Z,67.50
2023-02-06T12:13:16.800Z,66.60
2023-02-06T12:15:48.304Z,66.00
2023-02-06T12:18:20.009Z,69.00
2023-02-06T12:20:52.617Z,66.30
2023-02-06T12:23:26.064Z,69.30
2023-02-06T12:25:56.231Z,69.30
2023-02-06T12:28:26.181Z,70.80
2023-02-06T12:30:57.009Z,70.40
2023-02-06T12:33:33.933Z,71.60
2023-02-06T12:36:03.558Z,71.70
2023-02-06T12:38:43.698Z,70.40
2023-02-06T12:41:25.971Z,70.50
2023-02-06T12:43:59.057Z,70.00
2023-02-06T12:46:28.394Z,68.40
2023-02-06T12:49:02.241Z,68.10
2023-02-06T12:51:39.271Z,68.60
2023-02-06T12:54:15.492Z,70.20
2023-02-06T12:56:47.232Z,69.20
2023-02-06T12:59:57.817Z,68.70
2023-02-06T13:02:51.787Z,70.50
2023-02-06T13:05:27.960Z,69.30
2023-02-06T13:07:56.981Z,70.40
2023-02-06T13:10:26.489Z,71.50
2023-02-06T13:12:54.788Z,70.90
2023-02-06T13:15:24.108Z,72.00
2023-02-06T13:17:52.601Z,70.90
2023-02-06T13:20:21.423Z,71.60
2023-02-06T13:22:51.041Z,70.50
2023-02-06T13:25:55.567Z,68.10
2023-02-06T13:28:58.200Z,67.70
2023-02-06T13:31:30.700Z,69.10
2023-02-06T13:34:01.559Z,70.00
2023-02-06T13:36:49.315Z,70.20
2023-02-06T13:39:33.164Z,70.40
2023-02-06T13:42:18.168Z,70.70
2023-02-06T13:44:45.269Z,70.80
2023-02-06T13:47:45.797Z,70.50
2023-02-06T13:50:39.123Z,70.90
2023-02-06T13:53:30.791Z,71.10
2023-02-06T13:56:24.052Z,71.00
2023-02-06T13:58:54.361Z,70.30
2023-02-06T14:01:25.960Z,69.70
2023-02-06T14:03:55.031Z,70.40
2023-02-06T14:06:59.018Z,70.50
2023-02-06T14:10:16.888Z,69.90
2023-02-06T14:12:56.723Z,70.30
2023-02-06T14:15:35.472Z,70.20
2023-02-06T14:18:18.860Z,71.10
2023-02-06T14:20:55.116Z,70.10
2023-02-06T14:23:34.031Z,70.60
2023-02-06T14:26:19.307Z,70.70
2023-02-06T14:28:58.288Z,71.10
2023-02-06T14:31:49.027Z,70.80
2023-02-06T14:34:31.724Z,71.20
2023-02-06T14:37:17.066Z,71.90
2023-02-06T14:39:48.356Z,71.00
2023-02-06T14:42:19.067Z,71.00
2023-02-06T14:44:51.349Z,70.60
2023-02-06T14:47:24.179Z,71.00
2023-02-06T14:49:53.109Z,70.80
2023-02-06T14:52:24.483Z,71.30
2023-02-06T14:54:52.694Z,71.10
2023-02-06T14:57:25.978Z,71.00
2023-02-06T14:59:56.201Z,70.90
2023-02-06T15:02:27.537Z,71.20
2023-02-06T15:04:55.789Z,71.30
2023-02-06T15:07:27.542Z,71.10
2023-02-06T15:10:05.839Z,71.20
2023-02-06T15:12:33.681Z,70.90
2023-02-06T15:15:05.186Z,71.30
2023-02-06T15:17:34.612Z,70.80
2023-02-06T15:20:27.871Z,70.20
2023-02-06T15:23:16.604Z,71.00
2023-02-06T15:25:57.140Z,71.30
2023-02-06T15:28:28.062Z,72.00
2023-02-06T15:30:58.918Z,71.50
2023-02-06T15:33:29.350Z,71.70
2023-02-06T15:36:02.435Z,72.00
2023-02-06T15:38:32.962Z,72.20
2023-02-06T15:41:03.770Z,72.10
2023-02-06T15:43:31.995Z,72.10
2023-02-06T15:46:01.759Z,72.00
2023-02-06T15:48:34.820Z,72.00
2023-02-06T15:51:03.924Z,72.00
2023-02-06T15:53:34.736Z,72.10
2023-02-06T15:56:06.546Z,71.90
2023-02-06T15:58:35.154Z,71.90
2023-02-06T16:01:10.482Z,71.80
2023-02-06T16:03:41.814Z,72.00
2023-02-06T16:06:22.046Z,72.10
2023-02-06T16:08:51.378Z,72.20
2023-02-06T16:11:38.515Z,72.20
2023-02-06T16:14:17.510Z,72.30
2023-02-06T16:17:01.102Z,72.40
2023-02-06T16:19:44.925Z,72.50
2023-02-06T16:22:24.897Z,72.50
2023-02-06T16:24:54.389Z,72.50
2023-02-06T16:27:25.598Z,72.50
2023-02-06T16:29:55.834Z,72.60
2023-02-06T16:32:26.084Z,72.70
2023-02-06T16:34:55.130Z,72.70
2023-02-06T16:37:26.535Z,72.90
2023-02-06T16:39:57.007Z,72.90
2023-02-06T16:42:27.113Z,72.90
2023-02-06T16:44:59.872Z,72.90
2023-02-06T16:47:28.186Z,72.90
2023-02-06T16:49:56.652Z,72.90
2023-02-06T16:52:26.320Z,73.00
2023-02-06T16:54:56.208Z,73.00
2023-02-06T16:57:29.528Z,73.00
2023-02-06T16:59:57.066Z,73.00
2023-02-06T17:02:24.010Z,73.00
2023-02-06T17:04:56.159Z,73.10
2023-02-06T17:07:26.830Z,73.10
2023-02-06T17:09:56.076Z,73.10
2023-02-06T17:12:23.063Z,73.20
2023-02-06T17:14:50.313Z,73.20
2023-02-06T17:17:21.022Z,73.30
2023-02-06T17:19:52.612Z,73.30
2023-02-06T17:22:20.437Z,73.40
2023-02-06T17:24:49.065Z,73.50
2023-02-06T17:27:24.350Z,73.60
2023-02-06T17:29:51.869Z,73.70
2023-02-06T17:32:23.725Z,73.70
2023-02-06T17:34:54.046Z,73.80
2023-02-06T17:37:21.569Z,73.80
2023-02-06T17:39:51.694Z,73.80
2023-02-06T17:42:19.237Z,73.80
2023-02-06T17:44:49.670Z,73.80
2023-02-06T17:58:36.411Z,74.00
2023-02-06T18:01:04.948Z,74.00
2023-02-06T18:03:31.759Z,74.00
2023-02-06T18:06:00.323Z,74.10
2023-02-06T18:08:28.615Z,74.10
2023-02-06T18:11:24.261Z,74.20
2023-02-06T18:14:11.535Z,74.30
2023-02-06T18:16:42.824Z,74.30
2023-02-06T18:19:10.686Z,74.40
2023-02-06T18:21:37.958Z,74.40
2023-02-06T18:24:06.227Z,74.40
2023-02-06T18:26:33.491Z,74.50
2023-02-06T18:29:03.667Z,74.50
2023-02-06T18:31:33.271Z,74.50
2023-02-06T18:34:04.464Z,74.50
2023-02-06T18:36:31.841Z,74.50
2023-02-06T18:38:58.718Z,74.50
2023-02-06T18:41:44.238Z,74.60
2023-02-06T18:44:11.632Z,74.70
2023-02-06T18:46:39.338Z,74.70
2023-02-06T18:49:08.390Z,74.80
2023-02-06T18:51:35.424Z,74.80
2023-02-06T18:54:03.301Z,74.90
2023-02-06T18:56:30.848Z,75.00
2023-02-06T18:58:57.700Z,75.00
2023-02-06T19:01:26.013Z,75.00
2023-02-06T19:03:53.660Z,75.10
2023-02-06T19:06:23.814Z,75.20
2023-02-06T19:08:51.354Z,75.30
2023-02-06T19:11:18.258Z,75.30
2023-02-06T19:13:45.430Z,75.40
2023-02-06T19:16:15.644Z,75.40
2023-02-06T19:18:48.217Z,75.40
2023-02-06T19:21:17.075Z,75.50
2023-02-06T19:23:47.179Z,75.60
2023-02-06T19:26:16.600Z,75.70
2023-02-06T19:28:43.801Z,75.80
2023-02-06T19:31:12.657Z,75.80
2023-02-06T19:33:41.323Z,75.90
2023-02-06T19:36:09.761Z,75.90
2023-02-06T19:38:36.630Z,75.90
2023-02-06T19:41:09.026Z,76.00
2023-02-06T19:43:36.528Z,76.10
2023-02-06T19:46:04.317Z,76.10
2023-02-06T19:48:31.151Z,76.20
2023-02-06T19:51:02.735Z,76.20
2023-02-06T19:53:30.180Z,76.30
2023-02-06T19:55:57.280Z,76.40
2023-02-06T19:58:28.945Z,76.50
2023-02-06T20:00:55.811Z,76.60
2023-02-06T20:03:22.890Z,76.60
2023-02-06T20:05:49.797Z,76.60
2023-02-06T20:08:16.904Z,76.70
2023-02-06T20:10:43.874Z,76.70
2023-02-06T20:13:10.777Z,76.80
2023-02-06T20:15:39.803Z,77.10
2023-02-06T20:18:07.015Z,77.30
2023-02-06T20:20:34.623Z,77.30
2023-02-06T20:23:01.974Z,77.40
2023-02-06T20:25:28.893Z,77.70
2023-02-06T20:27:56.134Z,77.90
2023-02-06T20:30:24.320Z,78.10
2023-02-06T20:32:52.595Z,78.00
2023-02-06T20:35:19.837Z,77.90
2023-02-06T20:37:46.821Z,77.80
2023-02-06T20:40:14.214Z,77.90
2023-02-06T20:42:44.431Z,77.90
2023-02-06T20:45:14.310Z,77.80
2023-02-06T20:47:41.179Z,77.90
2023-02-06T20:50:10.055Z,78.10
2023-02-06T20:52:39.852Z,78.30
2023-02-06T20:55:07.673Z,78.40
2023-02-06T20:57:35.502Z,78.50
2023-02-06T21:00:04.123Z,78.70
2023-02-06T21:02:31.365Z,78.50
2023-02-06T21:04:58.417Z,78.60
2023-02-06T21:07:27.093Z,78.60
2023-02-06T21:09:53.905Z,79.00
2023-02-06T21:12:21.230Z,79.00
2023-02-06T21:14:48.092Z,79.10
2023-02-06T21:17:15.430Z,79.00
2023-02-06T21:19:42.371Z,78.90
2023-02-06T21:22:09.771Z,79.00
2023-02-06T21:24:37.996Z,79.10
2023-02-06T21:27:05.090Z,79.10
2023-02-06T21:29:32.065Z,79.10
2023-02-06T21:32:12.564Z,79.00
2023-02-06T21:34:41.115Z,78.80
2023-02-06T21:37:07.959Z,79.10
2023-02-06T21:39:37.790Z,79.20
2023-02-06T21:42:06.965Z,79.10
2023-02-06T21:44:34.612Z,79.10
2023-02-06T21:47:01.588Z,79.20
2023-02-06T21:49:28.775Z,79.30
2023-02-06T21:51:59.052Z,79.30
2023-02-06T21:54:26.136Z,79.20
2023-02-06T21:56:54.112Z,79.20
2023-02-06T21:59:22.394Z,79.20
2023-02-06T22:01:49.236Z,79.10
2023-02-06T22:04:16.536Z,79.10
2023-02-06T22:06:43.658Z,79.20
2023-02-06T22:09:15.552Z,79.20
2023-02-06T22:11:43.713Z,79.20
2023-02-06T22:14:12.668Z,79.30
2023-02-06T22:16:41.209Z,79.30
2023-02-06T22:19:09.547Z,79.30
2023-02-06T22:21:36.820Z,79.30
2023-02-06T22:24:06.707Z,79.30
2023-02-06T22:26:36.878Z,79.30
2023-02-06T22:29:04.629Z,79.30
2023-02-06T22:31:34.115Z,79.30
2023-02-06T22:34:03.391Z,79.30
2023-02-06T22:36:32.727Z,79.30
2023-02-06T22:39:03.941Z,79.30
2023-02-06T22:41:31.423Z,79.40
2023-02-06T22:43:58.615Z,79.50
2023-02-06T22:46:27.363Z,79.60
2023-02-06T22:48:54.902Z,79.60
2023-02-06T22:51:23.184Z,79.70
2023-02-06T22:53:51.071Z,79.70
2023-02-06T22:56:32.423Z,79.70
2023-02-06T22:59:03.108Z,79.80
2023-02-06T23:01:33.076Z,80.00
2023-02-06T23:04:01.466Z,80.20
2023-02-06T23:06:31.585Z,80.20
2023-02-06T23:08:59.918Z,80.10
2023-02-06T23:11:31.523Z,80.10
2023-02-06T23:14:00.127Z,80.10
2023-02-06T23:16:28.010Z,80.10
2023-02-06T23:18:55.114Z,80.00
2023-02-06T23:21:24.570Z,80.00
2023-02-06T23:23:54.646Z,80.00
2023-02-06T23:26:23.064Z,80.00
2023-02-06T23:28:50.155Z,80.00
2023-02-06T23:31:17.331Z,79.90
2023-02-06T23:33:44.766Z,79.90
2023-02-06T23:36:13.692Z,79.90
2023-02-06T23:38:41.240Z,79.90
2023-02-06T23:41:11.637Z,79.90
2023-02-06T23:43:39.287Z,79.90
2023-02-06T23:46:10.962Z,79.90
2023-02-06T23:48:41.031Z,79.90
2023-02-06T23:51:07.942Z,79.90
2023-02-06T23:53:35.486Z,79.90
2023-02-06T23:56:03.019Z,79.90
2023-02-06T23:58:31.151Z,80.00
